createdAt,value
2022-09-24T00:02:44.338Z,16.30
2022-09-24T00:05:37.279Z,16.30
2022-09-24T00:08:27.072Z,16.30
2022-09-24T00:11:16.292Z,16.20
2022-09-24T00:14:06.879Z,16.20
2022-09-24T00:16:55.308Z,16.20
2022-09-24T00:19:44.352Z,16.10
2022-09-24T00:22:33.665Z,16.10
2022-09-24T00:25:40.819Z,16.10
2022-09-24T00:28:29.226Z,16.10
2022-09-24T00:31:17.590Z,16.10
2022-09-24T00:34:06.161Z,16.00
2022-09-24T00:36:54.584Z,16.00
2022-09-24T00:39:42.935Z,16.00
2022-09-24T00:42:32.832Z,16.00
2022-09-24T00:45:21.329Z,16.00
2022-09-24T00:48:09.696Z,15.90
2022-09-24T00:50:58.047Z,15.90
2022-09-24T00:53:46.599Z,15.90
2022-09-24T00:56:36.483Z,15.90
2022-09-24T00:59:26.252Z,16.00
2022-09-24T01:02:15.054Z,15.90
2022-09-24T01:05:03.886Z,15.90
2022-09-24T01:07:52.222Z,15.90
2022-09-24T01:11:05.462Z,15.90
2022-09-24T01:14:35.985Z,15.90
2022-09-24T01:17:30.124Z,15.90
2022-09-24T01:20:37.368Z,15.80
2022-09-24T01:23:47.742Z,15.80
2022-09-24T01:27:05.255Z,15.70
2022-09-24T01:30:05.539Z,15.70
2022-09-24T01:32:55.175Z,15.60
2022-09-24T01:35:44.690Z,15.60
2022-09-24T01:38:37.731Z,15.50
2022-09-24T01:41:26.068Z,15.50
2022-09-24T01:44:14.438Z,15.50
2022-09-24T01:47:06.180Z,15.40
2022-09-24T01:49:54.744Z,15.40
2022-09-24T01:52:45.445Z,15.30
2022-09-24T01:55:38.314Z,15.30
2022-09-24T01:58:29.258Z,15.20
2022-09-24T02:01:22.735Z,15.20
2022-09-24T02:04:16.582Z,15.10
2022-09-24T02:07:08.257Z,15.10
2022-09-24T02:09:56.623Z,15.00
2022-09-24T02:12:47.091Z,14.90
2022-09-24T02:15:37.221Z,14.80
2022-09-24T02:18:29.157Z,14.80
2022-09-24T02:21:20.446Z,14.80
2022-09-24T02:24:11.801Z,14.70
2022-09-24T02:27:00.422Z,14.60
2022-09-24T02:29:48.838Z,14.60
2022-09-24T02:32:37.702Z,14.50
2022-09-24T02:35:25.113Z,14.50
2022-09-24T02:38:18.958Z,14.40
2022-09-24T02:41:08.066Z,14.40
2022-09-24T02:43:56.469Z,14.40
2022-09-24T02:46:45.011Z,14.40
2022-09-24T02:49:33.485Z,14.40
2022-09-24T02:52:22.374Z,14.30
2022-09-24T02:55:13.067Z,14.30
2022-09-24T02:58:01.393Z,14.30
2022-09-24T03:00:49.796Z,14.30
2022-09-24T03:03:38.134Z,14.30
2022-09-24T03:06:26.560Z,14.30
2022-09-24T03:09:15.142Z,14.30
2022-09-24T03:12:05.177Z,14.30
2022-09-24T03:14:53.576Z,14.30
2022-09-24T03:17:41.962Z,14.30
2022-09-24T03:20:30.304Z,14.30
2022-09-24T03:23:18.638Z,14.30
2022-09-24T03:26:07.160Z,14.20
2022-09-24T03:28:56.869Z,14.20
2022-09-24T03:31:44.340Z,14.20
2022-09-24T03:34:32.718Z,14.20
2022-09-24T03:37:21.072Z,14.10
2022-09-24T03:40:10.544Z,14.10
2022-09-24T03:42:58.970Z,14.10
2022-09-24T03:45:49.059Z,14.10
2022-09-24T03:48:39.319Z,14.10
2022-09-24T03:51:27.820Z,14.10
2022-09-24T03:54:16.477Z,14.10
2022-09-24T03:57:04.946Z,14.10
2022-09-24T03:59:54.231Z,14.10
2022-09-24T04:02:44.868Z,14.10
2022-09-24T04:05:33.461Z,14.20
2022-09-24T04:08:22.062Z,14.20
2022-09-24T04:11:10.405Z,14.20
2022-09-24T04:13:59.131Z,14.20
2022-09-24T04:16:47.558Z,14.20
2022-09-24T04:19:37.253Z,14.20
2022-09-24T04:22:25.979Z,14.30
2022-09-24T04:25:15.041Z,14.20
2022-09-24T04:28:05.378Z,14.30
2022-09-24T04:30:53.727Z,14.20
2022-09-24T04:33:42.059Z,14.20
2022-09-24T04:36:31.785Z,14.20
2022-09-24T04:39:22.332Z,14.10
2022-09-24T04:42:10.662Z,14.10
2022-09-24T04:44:59.317Z,14.00
2022-09-24T04:47:52.502Z,14.00
2022-09-24T04:50:45.895Z,14.00
2022-09-24T04:53:37.093Z,13.90
2022-09-24T04:56:25.599Z,13.90
2022-09-24T04:59:13.950Z,13.90
2022-09-24T05:02:08.644Z,13.90
2022-09-24T05:04:57.726Z,13.90
2022-09-24T05:07:46.197Z,13.90
2022-09-24T05:10:35.959Z,13.80
2022-09-24T05:13:24.349Z,13.80
2022-09-24T05:16:12.720Z,13.80
2022-09-24T05:19:01.979Z,13.80
2022-09-24T05:21:50.392Z,13.80
2022-09-24T05:24:38.718Z,13.90
2022-09-24T05:27:27.469Z,13.90
2022-09-24T05:30:16.483Z,13.90
2022-09-24T05:33:04.978Z,14.00
2022-09-24T05:35:55.351Z,14.00
2022-09-24T05:38:43.744Z,14.10
2022-09-24T05:41:32.161Z,14.10
2022-09-24T05:44:21.880Z,14.10
2022-09-24T05:47:10.350Z,14.10
2022-09-24T05:49:58.684Z,14.20
2022-09-24T05:52:47.019Z,14.20
2022-09-24T05:55:35.608Z,14.20
2022-09-24T05:58:24.732Z,14.20
2022-09-24T06:01:14.518Z,14.30
2022-09-24T06:03:43.703Z,14.30
2022-09-24T06:06:11.876Z,14.30
2022-09-24T06:08:39.974Z,14.30
2022-09-24T06:11:08.408Z,14.40
2022-09-24T06:13:36.556Z,14.50
2022-09-24T06:16:06.070Z,14.50
2022-09-24T06:18:36.249Z,14.60
2022-09-24T06:21:04.878Z,14.70
2022-09-24T06:23:33.112Z,14.90
2022-09-24T06:26:01.162Z,15.20
2022-09-24T06:28:29.238Z,15.50
2022-09-24T06:30:59.958Z,15.70
2022-09-24T06:33:28.665Z,16.10
2022-09-24T06:36:00.880Z,16.40
2022-09-24T06:38:29.699Z,16.70
2022-09-24T06:41:00.426Z,17.00
2022-09-24T06:43:28.587Z,17.10
2022-09-24T06:45:56.927Z,17.20
2022-09-24T06:48:25.026Z,17.30
2022-09-24T06:50:54.662Z,17.20
2022-09-24T06:53:24.235Z,17.20
2022-09-24T06:55:53.330Z,17.20
2022-09-24T06:58:21.734Z,17.20
2022-09-24T07:00:54.243Z,17.20
2022-09-24T07:03:22.780Z,17.40
2022-09-24T07:05:50.908Z,17.60
2022-09-24T07:08:19.058Z,17.90
2022-09-24T07:10:49.848Z,18.10
2022-09-24T07:13:18.032Z,18.20
2022-09-24T07:15:46.290Z,18.30
2022-09-24T07:18:14.470Z,18.20
2022-09-24T07:20:42.562Z,18.20
2022-09-24T07:23:11.885Z,18.20
2022-09-24T07:25:40.341Z,18.10
2022-09-24T07:28:12.006Z,18.00
2022-09-24T07:30:40.385Z,17.90
2022-09-24T07:33:08.719Z,17.90
2022-09-24T07:35:38.703Z,17.80
2022-09-24T07:38:08.378Z,17.80
2022-09-24T07:40:36.545Z,17.90
2022-09-24T07:43:04.658Z,18.00
2022-09-24T07:45:34.402Z,18.10
2022-09-24T07:48:03.606Z,18.20
2022-09-24T07:50:33.363Z,18.30
2022-09-24T07:53:02.610Z,18.30
2022-09-24T07:55:30.759Z,18.40
2022-09-24T07:57:58.899Z,18.50
2022-09-24T08:00:26.964Z,18.50
2022-09-24T08:02:56.520Z,18.40
2022-09-24T08:05:24.689Z,18.40
2022-09-24T08:07:53.511Z,18.30
2022-09-24T08:10:21.748Z,18.30
2022-09-24T08:12:49.901Z,18.30
2022-09-24T08:15:18.139Z,18.20
2022-09-24T08:17:46.214Z,18.20
2022-09-24T08:20:15.889Z,18.20
2022-09-24T08:22:44.115Z,18.20
2022-09-24T08:25:12.236Z,18.20
2022-09-24T08:27:40.285Z,18.30
2022-09-24T08:30:10.224Z,18.30
2022-09-24T08:32:38.234Z,18.30
2022-09-24T08:35:08.350Z,18.40
2022-09-24T08:37:38.378Z,18.50
2022-09-24T08:40:08.406Z,18.70
2022-09-24T08:42:40.072Z,18.90
2022-09-24T08:45:27.531Z,19.10
2022-09-24T08:47:57.026Z,19.30
2022-09-24T08:50:27.015Z,19.50
2022-09-24T08:53:08.005Z,19.70
2022-09-24T08:55:38.947Z,19.90
2022-09-24T08:58:40.450Z,20.10
2022-09-24T09:01:20.622Z,20.30
2022-09-24T09:03:52.422Z,20.50
2022-09-24T09:06:41.258Z,20.60
2022-09-24T09:09:13.140Z,20.80
2022-09-24T09:11:42.141Z,21.00
2022-09-24T09:14:13.408Z,21.00
2022-09-24T09:16:46.941Z,21.10
2022-09-24T09:19:16.562Z,21.10
2022-09-24T09:21:46.184Z,21.10
2022-09-24T09:24:18.607Z,21.10
2022-09-24T09:26:49.565Z,21.10
2022-09-24T09:29:18.065Z,20.90
2022-09-24T09:31:56.379Z,20.90
2022-09-24T09:34:45.501Z,20.80
2022-09-24T09:37:26.121Z,20.80
2022-09-24T09:40:00.685Z,20.80
2022-09-24T09:42:32.074Z,20.80
2022-09-24T09:45:02.625Z,21.00
2022-09-24T09:47:41.507Z,21.00
2022-09-24T09:50:19.209Z,21.10
2022-09-24T09:52:47.511Z,21.20
2022-09-24T09:55:25.040Z,21.40
2022-09-24T09:57:53.136Z,21.50
2022-09-24T10:00:33.599Z,21.70
2022-09-24T10:03:02.643Z,21.80
2022-09-24T10:05:30.863Z,22.00
2022-09-24T10:07:59.007Z,22.10
2022-09-24T10:10:29.088Z,22.10
2022-09-24T10:13:08.835Z,22.10
2022-09-24T10:15:45.387Z,22.20
2022-09-24T10:18:14.389Z,22.20
2022-09-24T10:20:47.091Z,22.20
2022-09-24T10:23:19.689Z,22.10
2022-09-24T10:26:00.492Z,22.10
2022-09-24T10:28:46.110Z,22.10
2022-09-24T10:31:16.172Z,22.10
2022-09-24T10:33:46.622Z,22.20
2022-09-24T10:36:17.031Z,22.20
2022-09-24T10:38:45.627Z,22.30
2022-09-24T10:41:27.092Z,22.40
2022-09-24T10:43:55.813Z,22.30
2022-09-24T10:46:42.564Z,22.30
2022-09-24T10:49:18.441Z,22.30
2022-09-24T10:51:51.591Z,22.40
2022-09-24T10:54:36.243Z,22.40
2022-09-24T10:57:12.131Z,22.40
2022-09-24T10:59:56.146Z,22.50
2022-09-24T11:02:50.349Z,22.40
2022-09-24T11:05:20.417Z,22.50
2022-09-24T11:08:05.173Z,22.60
2022-09-24T11:10:58.191Z,22.70
2022-09-24T11:13:34.021Z,22.70
2022-09-24T11:16:39.614Z,22.80
2022-09-24T11:19:11.958Z,22.80
2022-09-24T11:22:04.178Z,22.80
2022-09-24T11:24:42.924Z,22.70
2022-09-24T11:27:42.414Z,22.70
2022-09-24T11:30:14.266Z,22.70
2022-09-24T11:33:02.293Z,22.80
2022-09-24T11:35:53.819Z,22.80
2022-09-24T11:38:28.368Z,22.80
2022-09-24T11:41:10.252Z,22.90
2022-09-24T11:44:06.181Z,22.90
2022-09-24T11:46:49.022Z,23.00
2022-09-24T11:49:38.481Z,23.00
2022-09-24T11:52:09.872Z,23.10
2022-09-24T11:54:41.419Z,23.10
2022-09-24T11:57:12.527Z,23.10
2022-09-24T11:59:46.190Z,23.10
2022-09-24T12:02:19.659Z,23.10
2022-09-24T12:04:54.395Z,23.10
2022-09-24T12:07:27.691Z,23.10
2022-09-24T12:10:00.980Z,23.10
2022-09-24T12:12:31.086Z,23.00
2022-09-24T12:15:01.738Z,23.00
2022-09-24T12:17:35.162Z,22.90
2022-09-24T12:20:06.422Z,22.80
2022-09-24T12:22:34.482Z,22.80
2022-09-24T12:25:02.883Z,22.80
2022-09-24T12:27:35.395Z,22.80
2022-09-24T12:30:28.645Z,22.90
2022-09-24T12:33:02.206Z,22.90
2022-09-24T12:35:45.098Z,23.00
2022-09-24T12:38:18.053Z,23.00
2022-09-24T12:41:19.881Z,23.00
2022-09-24T12:43:51.412Z,23.10
2022-09-24T12:46:21.789Z,23.20
2022-09-24T12:48:51.318Z,23.20
2022-09-24T12:51:22.590Z,23.30
2022-09-24T12:53:59.606Z,23.30
2022-09-24T12:56:29.648Z,23.40
2022-09-24T12:58:58.085Z,23.50
2022-09-24T13:01:32.050Z,23.60
2022-09-24T13:04:25.299Z,23.60
2022-09-24T13:06:53.784Z,23.70
2022-09-24T13:09:37.426Z,23.70
2022-09-24T13:12:20.649Z,23.60
2022-09-24T13:14:57.471Z,23.60
2022-09-24T13:17:25.821Z,23.50
2022-09-24T13:19:59.817Z,23.50
2022-09-24T13:22:30.038Z,23.40
2022-09-24T13:25:22.647Z,23.40
2022-09-24T13:28:02.106Z,23.20
2022-09-24T13:30:37.325Z,23.10
2022-09-24T13:33:16.313Z,23.00
2022-09-24T13:35:49.210Z,22.90
2022-09-24T13:38:19.430Z,22.80
2022-09-24T13:40:53.666Z,22.80
2022-09-24T13:43:34.135Z,22.70
2022-09-24T13:46:02.264Z,22.70
2022-09-24T13:48:34.960Z,22.60
2022-09-24T13:51:04.919Z,22.60
2022-09-24T13:53:34.860Z,22.60
2022-09-24T13:56:04.950Z,22.60
2022-09-24T13:58:34.234Z,22.60
2022-09-24T14:01:07.455Z,22.60
2022-09-24T14:03:38.598Z,22.50
2022-09-24T14:06:12.817Z,22.70
2022-09-24T14:08:42.596Z,22.70
2022-09-24T14:11:17.017Z,22.70
2022-09-24T14:13:46.168Z,22.80
2022-09-24T14:16:17.743Z,22.80
2022-09-24T14:18:46.053Z,22.80
2022-09-24T14:21:21.942Z,22.90
2022-09-24T14:23:52.545Z,22.90
2022-09-24T14:26:27.689Z,22.90
2022-09-24T14:28:56.041Z,23.00
2022-09-24T14:31:24.205Z,23.00
2022-09-24T14:33:52.360Z,22.90
2022-09-24T14:36:27.685Z,22.90
2022-09-24T14:38:59.026Z,22.90
2022-09-24T14:41:29.930Z,22.90
2022-09-24T14:44:00.076Z,22.80
2022-09-24T14:46:29.692Z,22.80
2022-09-24T14:49:06.881Z,22.80
2022-09-24T14:51:36.964Z,22.90
2022-09-24T14:54:20.807Z,22.90
2022-09-24T14:56:48.904Z,22.90
2022-09-24T14:59:18.207Z,23.00
2022-09-24T15:01:46.313Z,23.00
2022-09-24T15:04:19.033Z,23.10
2022-09-24T15:06:48.815Z,23.10
2022-09-24T15:09:25.059Z,23.10
2022-09-24T15:11:55.235Z,23.10
2022-09-24T15:14:27.474Z,23.10
2022-09-24T15:16:57.093Z,23.00
2022-09-24T15:19:27.539Z,23.00
2022-09-24T15:21:58.684Z,23.00
2022-09-24T15:24:27.297Z,23.00
2022-09-24T15:27:02.151Z,23.00
2022-09-24T15:29:30.215Z,23.00
2022-09-24T15:31:58.267Z,23.00
2022-09-24T15:34:27.366Z,23.00
2022-09-24T15:36:59.720Z,22.90
2022-09-24T15:39:28.139Z,23.00
2022-09-24T15:41:56.246Z,22.90
2022-09-24T15:44:32.856Z,22.90
2022-09-24T15:47:01.843Z,22.90
2022-09-24T15:49:29.923Z,22.90
2022-09-24T15:52:02.772Z,22.90
2022-09-24T15:54:31.084Z,22.80
2022-09-24T15:56:59.174Z,22.80
2022-09-24T15:59:28.479Z,22.80
2022-09-24T16:01:58.893Z,22.70
2022-09-24T16:04:27.035Z,22.80
2022-09-24T16:06:55.145Z,22.80
2022-09-24T16:09:24.616Z,22.80
2022-09-24T16:11:52.735Z,22.80
2022-09-24T16:14:20.878Z,22.80
2022-09-24T16:16:49.070Z,22.80
2022-09-24T16:19:17.207Z,22.70
2022-09-24T16:21:45.250Z,22.70
2022-09-24T16:24:13.357Z,22.70
2022-09-24T16:26:42.895Z,22.60
2022-09-24T16:29:12.046Z,22.50
2022-09-24T16:31:40.352Z,22.40
2022-09-24T16:34:08.525Z,22.20
2022-09-24T16:36:36.579Z,22.10
2022-09-24T16:39:04.956Z,21.90
2022-09-24T16:41:34.512Z,21.80
2022-09-24T16:44:04.765Z,21.70
2022-09-24T16:46:32.949Z,21.50
2022-09-24T16:49:01.086Z,21.40
2022-09-24T16:51:29.379Z,21.20
2022-09-24T16:53:57.718Z,21.10
2022-09-24T16:56:25.843Z,21.00
2022-09-24T16:58:54.404Z,21.00
2022-09-24T17:01:23.983Z,20.80
2022-09-24T17:03:52.529Z,20.80
2022-09-24T17:06:21.228Z,20.70
2022-09-24T17:09:07.099Z,20.60
2022-09-24T17:11:35.328Z,20.60
2022-09-24T17:14:05.362Z,20.50
2022-09-24T17:16:53.397Z,20.40
2022-09-24T17:19:41.734Z,20.30
2022-09-24T17:22:30.634Z,20.20
2022-09-24T17:25:19.113Z,20.10
2022-09-24T17:28:07.467Z,20.00
2022-09-24T17:30:57.538Z,19.90
2022-09-24T17:33:47.812Z,19.80
2022-09-24T17:36:36.954Z,19.70
2022-09-24T17:39:25.542Z,19.60
2022-09-24T17:42:13.898Z,19.50
2022-09-24T17:45:02.286Z,19.40
2022-09-24T17:48:00.517Z,19.40
2022-09-24T17:50:56.059Z,19.30
2022-09-24T17:53:44.476Z,19.20
2022-09-24T17:56:33.670Z,19.10
2022-09-24T17:59:26.484Z,19.10
2022-09-24T18:02:15.511Z,19.10
2022-09-24T18:05:03.887Z,19.00
2022-09-24T18:07:53.648Z,19.00
2022-09-24T18:10:41.998Z,19.00
2022-09-24T18:13:34.700Z,19.00
2022-09-24T18:16:24.344Z,19.10
2022-09-24T18:19:15.627Z,19.10
2022-09-24T18:22:04.557Z,19.10
2022-09-24T18:24:54.738Z,19.10
2022-09-24T18:27:43.967Z,19.10
2022-09-24T18:30:32.310Z,19.10
2022-09-24T18:33:20.645Z,19.10
2022-09-24T18:36:10.892Z,19.10
2022-09-24T18:38:59.309Z,19.10
2022-09-24T18:41:48.992Z,19.10
2022-09-24T18:44:37.335Z,19.00
2022-09-24T18:47:25.678Z,18.90
2022-09-24T18:50:14.101Z,18.90
2022-09-24T18:53:02.443Z,18.80
2022-09-24T18:55:50.798Z,18.70
2022-09-24T18:58:40.472Z,18.60
2022-09-24T19:01:29.019Z,18.60
2022-09-24T19:04:18.178Z,18.60
2022-09-24T19:07:08.444Z,18.50
2022-09-24T19:09:57.021Z,18.50
2022-09-24T19:12:45.422Z,18.50
2022-09-24T19:15:37.253Z,18.40
2022-09-24T19:18:26.270Z,18.40
2022-09-24T19:21:15.572Z,18.30
2022-09-24T19:24:05.903Z,18.30
2022-09-24T19:26:54.783Z,18.20
2022-09-24T19:29:43.487Z,18.20
2022-09-24T19:32:33.485Z,18.10
2022-09-24T19:35:21.830Z,18.00
2022-09-24T19:38:10.192Z,18.00
2022-09-24T19:41:00.552Z,17.90
2022-09-24T19:43:52.015Z,17.90
2022-09-24T19:46:40.839Z,17.80
2022-09-24T19:49:30.634Z,17.80
2022-09-24T19:52:19.108Z,17.90
2022-09-24T19:55:08.026Z,17.90
2022-09-24T19:57:56.435Z,17.90
2022-09-24T20:00:44.924Z,18.00
2022-09-24T20:03:33.344Z,18.00
2022-09-24T20:06:24.234Z,18.00
2022-09-24T20:09:12.557Z,18.00
2022-09-24T20:12:01.858Z,18.00
2022-09-24T20:14:50.180Z,18.00
2022-09-24T20:17:38.516Z,18.00
2022-09-24T20:20:27.131Z,18.00
2022-09-24T20:23:16.951Z,18.00
2022-09-24T20:26:22.765Z,18.00
2022-09-24T20:29:11.848Z,18.00
2022-09-24T20:32:00.318Z,18.00
2022-09-24T20:34:48.682Z,18.00
2022-09-24T20:37:38.003Z,18.00
2022-09-24T20:40:27.709Z,18.00
2022-09-24T20:43:16.972Z,18.10
2022-09-24T20:46:10.044Z,18.10
2022-09-24T20:49:00.081Z,18.10
2022-09-24T20:51:50.586Z,18.10
2022-09-24T20:54:42.551Z,18.20
2022-09-24T20:57:33.057Z,18.20
2022-09-24T21:00:21.376Z,18.20
2022-09-24T21:03:25.949Z,18.20
2022-09-24T21:06:20.660Z,18.20
2022-09-24T21:09:09.044Z,18.20
2022-09-24T21:11:57.400Z,18.20
2022-09-24T21:14:48.416Z,18.20
2022-09-24T21:17:36.825Z,18.20
2022-09-24T21:20:25.542Z,18.20
2022-09-24T21:23:14.682Z,18.10
2022-09-24T21:26:10.796Z,18.10
2022-09-24T21:29:00.814Z,18.10
2022-09-24T21:31:50.580Z,18.10
2022-09-24T21:34:39.264Z,18.00
2022-09-24T21:37:28.730Z,18.00
2022-09-24T21:40:17.284Z,18.00
2022-09-24T21:43:06.881Z,18.00
2022-09-24T21:46:01.090Z,18.00
2022-09-24T21:48:51.201Z,18.00
2022-09-24T21:51:39.753Z,18.00
2022-09-24T21:54:31.099Z,18.00
2022-09-24T21:57:19.589Z,17.90
2022-09-24T22:00:10.905Z,17.90
2022-09-24T22:02:59.283Z,17.80
2022-09-24T22:05:49.084Z,17.80
2022-09-24T22:08:37.993Z,17.80
2022-09-24T22:11:27.288Z,17.90
2022-09-24T22:14:15.614Z,17.80
2022-09-24T22:17:05.619Z,17.70
2022-09-24T22:19:55.022Z,17.70
2022-09-24T22:22:44.730Z,17.70
2022-09-24T22:25:33.078Z,17.60
2022-09-24T22:28:24.278Z,17.60
2022-09-24T22:31:14.063Z,17.60
2022-09-24T22:34:20.038Z,17.50
2022-09-24T22:37:08.407Z,17.50
2022-09-24T22:39:58.082Z,17.50
2022-09-24T22:42:46.456Z,17.40
2022-09-24T22:45:34.941Z,17.40
2022-09-24T22:48:23.301Z,17.40
2022-09-24T22:51:11.714Z,17.40
2022-09-24T22:54:00.407Z,17.40
2022-09-24T22:56:50.189Z,17.40
2022-09-24T22:59:38.620Z,17.30
2022-09-24T23:02:26.967Z,17.40
2022-09-24T23:05:15.581Z,17.40
2022-09-24T23:08:03.944Z,17.40
2022-09-24T23:10:52.304Z,17.40
2022-09-24T23:13:43.400Z,17.40
2022-09-24T23:16:32.891Z,17.40
2022-09-24T23:19:21.349Z,17.40
2022-09-24T23:22:09.694Z,17.50
2022-09-24T23:24:58.468Z,17.40
2022-09-24T23:27:46.833Z,17.40
2022-09-24T23:30:37.343Z,17.40
2022-09-24T23:33:25.698Z,17.40
2022-09-24T23:36:14.382Z,17.40
2022-09-24T23:39:03.076Z,17.40
2022-09-24T23:41:51.399Z,17.50
2022-09-24T23:44:39.744Z,17.50
2022-09-24T23:47:33.875Z,17.50
2022-09-24T23:50:24.316Z,17.50
2022-09-24T23:53:12.949Z,17.50
2022-09-24T23:56:01.662Z,17.50
2022-09-24T23:58:50.040Z,17.50
